sensor_id;sensor_type;location;lat;lon;timestamp;P1;durP1;ratioP1;P2;durP2;ratioP2
28625;SDS011;18905;42.668;23.364;2023-08-24T00:01:06;17.80;;;13.07;;
28625;SDS011;18905;42.668;23.364;2023-08-24T00:03:32;21.67;;;13.25;;
28625;SDS011;18905;42.668;23.364;2023-08-24T00:05:57;17.42;;;11.80;;
28625;SDS011;18905;42.668;23.364;2023-08-24T00:08:23;16.40;;;12.55;;
28625;SDS011;18905;42.668;23.364;2023-08-24T00:10:48;18.75;;;13.45;;
28625;SDS011;18905;42.668;23.364;2023-08-24T00:13:14;19.58;;;13.20;;
28625;SDS011;18905;42.668;23.364;2023-08-24T00:15:40;19.25;;;13.18;;
28625;SDS011;18905;42.668;23.364;2023-08-24T00:18:06;21.30;;;12.40;;
28625;SDS011;18905;42.668;23.364;2023-08-24T00:20:32;17.10;;;12.60;;
28625;SDS011;18905;42.668;23.364;2023-08-24T00:22:58;20.98;;;13.07;;
28625;SDS011;18905;42.668;23.364;2023-08-24T00:25:24;20.70;;;12.13;;
28625;SDS011;18905;42.668;23.364;2023-08-24T00:27:50;21.83;;;13.00;;
28625;SDS011;18905;42.668;23.364;2023-08-24T00:30:19;19.70;;;13.18;;
28625;SDS011;18905;42.668;23.364;2023-08-24T00:32:44;18.83;;;13.32;;
28625;SDS011;18905;42.668;23.364;2023-08-24T00:35:10;16.50;;;12.88;;
28625;SDS011;18905;42.668;23.364;2023-08-24T00:37:36;20.05;;;12.80;;
28625;SDS011;18905;42.668;23.364;2023-08-24T00:40:02;23.10;;;13.07;;
28625;SDS011;18905;42.668;23.364;2023-08-24T00:42:30;22.98;;;14.07;;
28625;SDS011;18905;42.668;23.364;2023-08-24T00:44:56;17.02;;;12.27;;
28625;SDS011;18905;42.668;23.364;2023-08-24T00:47:23;19.25;;;13.00;;
28625;SDS011;18905;42.668;23.364;2023-08-24T00:49:49;20.85;;;13.18;;
28625;SDS011;18905;42.668;23.364;2023-08-24T00:52:15;15.88;;;13.18;;
28625;SDS011;18905;42.668;23.364;2023-08-24T00:54:41;15.52;;;12.80;;
28625;SDS011;18905;42.668;23.364;2023-08-24T00:57:07;16.35;;;13.45;;
28625;SDS011;18905;42.668;23.364;2023-08-24T00:59:33;20.23;;;13.30;;
28625;SDS011;18905;42.668;23.364;2023-08-24T01:01:59;20.40;;;14.55;;
28625;SDS011;18905;42.668;23.364;2023-08-24T01:04:25;17.80;;;14.52;;
28625;SDS011;18905;42.668;23.364;2023-08-24T01:06:50;27.33;;;15.27;;
28625;SDS011;18905;42.668;23.364;2023-08-24T01:09:17;22.75;;;15.90;;
28625;SDS011;18905;42.668;23.364;2023-08-24T01:17:25;21.30;;;15.00;;
28625;SDS011;18905;42.668;23.364;2023-08-24T01:19:54;23.75;;;15.38;;
28625;SDS011;18905;42.668;23.364;2023-08-24T01:25:05;21.50;;;15.02;;
28625;SDS011;18905;42.668;23.364;2023-08-24T01:27:34;23.75;;;14.45;;
28625;SDS011;18905;42.668;23.364;2023-08-24T01:30:04;20.05;;;14.18;;
28625;SDS011;18905;42.668;23.364;2023-08-24T01:32:31;22.77;;;15.02;;
28625;SDS011;18905;42.668;23.364;2023-08-24T01:34:58;21.27;;;16.00;;
28625;SDS011;18905;42.668;23.364;2023-08-24T01:37:25;25.00;;;15.43;;
28625;SDS011;18905;42.668;23.364;2023-08-24T01:40:05;24.23;;;16.38;;
28625;SDS011;18905;42.668;23.364;2023-08-24T01:45:07;19.10;;;14.98;;
28625;SDS011;18905;42.668;23.364;2023-08-24T01:47:35;19.30;;;14.75;;
28625;SDS011;18905;42.668;23.364;2023-08-24T01:50:03;19.50;;;14.75;;
28625;SDS011;18905;42.668;23.364;2023-08-24T01:52:29;21.85;;;14.75;;
28625;SDS011;18905;42.668;23.364;2023-08-24T01:54:56;16.88;;;12.30;;
28625;SDS011;18905;42.668;23.364;2023-08-24T01:57:21;23.13;;;13.13;;
28625;SDS011;18905;42.668;23.364;2023-08-24T01:59:47;17.73;;;12.55;;
28625;SDS011;18905;42.668;23.364;2023-08-24T02:02:12;16.20;;;12.60;;
28625;SDS011;18905;42.668;23.364;2023-08-24T02:04:37;16.13;;;13.07;;
28625;SDS011;18905;42.668;23.364;2023-08-24T02:07:03;17.45;;;12.18;;
28625;SDS011;18905;42.668;23.364;2023-08-24T02:09:28;21.50;;;12.60;;
28625;SDS011;18905;42.668;23.364;2023-08-24T02:11:53;17.85;;;12.50;;
28625;SDS011;18905;42.668;23.364;2023-08-24T02:14:19;18.73;;;12.25;;
28625;SDS011;18905;42.668;23.364;2023-08-24T02:16:44;18.83;;;12.60;;
28625;SDS011;18905;42.668;23.364;2023-08-24T02:19:10;17.27;;;13.10;;
28625;SDS011;18905;42.668;23.364;2023-08-24T02:21:36;16.05;;;13.07;;
28625;SDS011;18905;42.668;23.364;2023-08-24T02:24:02;16.75;;;13.05;;
28625;SDS011;18905;42.668;23.364;2023-08-24T02:26:28;18.17;;;12.90;;
28625;SDS011;18905;42.668;23.364;2023-08-24T02:28:53;15.93;;;13.60;;
28625;SDS011;18905;42.668;23.364;2023-08-24T02:31:18;17.90;;;12.73;;
28625;SDS011;18905;42.668;23.364;2023-08-24T02:33:44;16.73;;;13.00;;
28625;SDS011;18905;42.668;23.364;2023-08-24T02:36:09;16.30;;;13.18;;
28625;SDS011;18905;42.668;23.364;2023-08-24T02:38:35;18.42;;;12.57;;
28625;SDS011;18905;42.668;23.364;2023-08-24T02:41:04;18.58;;;12.90;;
28625;SDS011;18905;42.668;23.364;2023-08-24T02:43:30;16.40;;;13.23;;
28625;SDS011;18905;42.668;23.364;2023-08-24T02:46:02;19.92;;;13.38;;
28625;SDS011;18905;42.668;23.364;2023-08-24T02:48:29;16.67;;;13.27;;
28625;SDS011;18905;42.668;23.364;2023-08-24T02:50:56;16.98;;;13.02;;
28625;SDS011;18905;42.668;23.364;2023-08-24T02:53:22;16.73;;;11.88;;
28625;SDS011;18905;42.668;23.364;2023-08-24T02:55:48;16.42;;;13.35;;
28625;SDS011;18905;42.668;23.364;2023-08-24T02:58:13;14.95;;;12.45;;
28625;SDS011;18905;42.668;23.364;2023-08-24T03:00:38;17.65;;;13.23;;
28625;SDS011;18905;42.668;23.364;2023-08-24T03:03:04;17.17;;;13.13;;
28625;SDS011;18905;42.668;23.364;2023-08-24T03:05:31;20.83;;;12.85;;
28625;SDS011;18905;42.668;23.364;2023-08-24T03:07:57;16.80;;;12.18;;
28625;SDS011;18905;42.668;23.364;2023-08-24T03:10:23;22.95;;;13.93;;
28625;SDS011;18905;42.668;23.364;2023-08-24T03:12:48;21.75;;;12.85;;
28625;SDS011;18905;42.668;23.364;2023-08-24T03:15:14;14.85;;;13.23;;
28625;SDS011;18905;42.668;23.364;2023-08-24T03:17:40;19.45;;;13.77;;
28625;SDS011;18905;42.668;23.364;2023-08-24T03:20:06;20.17;;;13.43;;
28625;SDS011;18905;42.668;23.364;2023-08-24T03:22:32;17.50;;;13.25;;
28625;SDS011;18905;42.668;23.364;2023-08-24T03:24:57;24.58;;;14.70;;
28625;SDS011;18905;42.668;23.364;2023-08-24T03:27:23;19.33;;;15.05;;
28625;SDS011;18905;42.668;23.364;2023-08-24T03:29:48;20.90;;;13.98;;
28625;SDS011;18905;42.668;23.364;2023-08-24T03:32:13;22.23;;;14.23;;
28625;SDS011;18905;42.668;23.364;2023-08-24T03:34:39;21.83;;;14.25;;
28625;SDS011;18905;42.668;23.364;2023-08-24T03:37:05;21.10;;;14.45;;
28625;SDS011;18905;42.668;23.364;2023-08-24T03:39:30;17.15;;;14.23;;
28625;SDS011;18905;42.668;23.364;2023-08-24T03:41:56;18.13;;;13.88;;
28625;SDS011;18905;42.668;23.364;2023-08-24T03:44:21;21.75;;;15.05;;
28625;SDS011;18905;42.668;23.364;2023-08-24T03:46:47;24.73;;;14.52;;
28625;SDS011;18905;42.668;23.364;2023-08-24T03:49:12;19.15;;;13.98;;
28625;SDS011;18905;42.668;23.364;2023-08-24T03:51:38;19.85;;;14.02;;
28625;SDS011;18905;42.668;23.364;2023-08-24T03:54:03;18.98;;;15.13;;
28625;SDS011;18905;42.668;23.364;2023-08-24T03:56:30;20.80;;;15.43;;
28625;SDS011;18905;42.668;23.364;2023-08-24T03:58:56;28.70;;;16.25;;
28625;SDS011;18905;42.668;23.364;2023-08-24T04:01:21;27.35;;;16.17;;
28625;SDS011;18905;42.668;23.364;2023-08-24T04:03:47;28.42;;;15.57;;
28625;SDS011;18905;42.668;23.364;2023-08-24T04:06:13;28.33;;;16.23;;
28625;SDS011;18905;42.668;23.364;2023-08-24T04:08:38;22.02;;;17.08;;
28625;SDS011;18905;42.668;23.364;2023-08-24T04:11:04;33.00;;;17.88;;
28625;SDS011;18905;42.668;23.364;2023-08-24T04:13:29;23.95;;;17.92;;
28625;SDS011;18905;42.668;23.364;2023-08-24T04:15:54;22.52;;;16.50;;
28625;SDS011;18905;42.668;23.364;2023-08-24T04:18:20;22.67;;;16.70;;
28625;SDS011;18905;42.668;23.364;2023-08-24T04:20:45;24.15;;;17.33;;
28625;SDS011;18905;42.668;23.364;2023-08-24T04:23:12;25.98;;;16.67;;
28625;SDS011;18905;42.668;23.364;2023-08-24T04:25:39;23.27;;;16.75;;
28625;SDS011;18905;42.668;23.364;2023-08-24T04:28:05;23.25;;;17.23;;
28625;SDS011;18905;42.668;23.364;2023-08-24T04:30:30;29.45;;;16.60;;
28625;SDS011;18905;42.668;23.364;2023-08-24T04:32:56;30.63;;;18.25;;
28625;SDS011;18905;42.668;23.364;2023-08-24T04:35:24;22.80;;;17.83;;
28625;SDS011;18905;42.668;23.364;2023-08-24T04:37:51;25.45;;;17.02;;
28625;SDS011;18905;42.668;23.364;2023-08-24T04:40:16;31.15;;;17.92;;
28625;SDS011;18905;42.668;23.364;2023-08-24T04:42:42;24.48;;;17.65;;
28625;SDS011;18905;42.668;23.364;2023-08-24T04:45:07;25.98;;;18.98;;
28625;SDS011;18905;42.668;23.364;2023-08-24T04:47:33;29.48;;;18.67;;
28625;SDS011;18905;42.668;23.364;2023-08-24T04:49:58;34.42;;;18.95;;
28625;SDS011;18905;42.668;23.364;2023-08-24T04:52:24;32.80;;;18.42;;
28625;SDS011;18905;42.668;23.364;2023-08-24T04:54:49;31.83;;;18.40;;
28625;SDS011;18905;42.668;23.364;2023-08-24T04:57:14;30.17;;;17.50;;
28625;SDS011;18905;42.668;23.364;2023-08-24T04:59:40;26.67;;;17.80;;
28625;SDS011;18905;42.668;23.364;2023-08-24T05:02:05;29.75;;;18.80;;
28625;SDS011;18905;42.668;23.364;2023-08-24T05:04:31;34.67;;;17.55;;
28625;SDS011;18905;42.668;23.364;2023-08-24T05:06:56;26.23;;;17.75;;
28625;SDS011;18905;42.668;23.364;2023-08-24T05:09:21;26.23;;;18.67;;
28625;SDS011;18905;42.668;23.364;2023-08-24T05:11:47;26.27;;;18.60;;
28625;SDS011;18905;42.668;23.364;2023-08-24T05:14:13;27.67;;;18.35;;
28625;SDS011;18905;42.668;23.364;2023-08-24T05:16:39;39.42;;;19.58;;
28625;SDS011;18905;42.668;23.364;2023-08-24T05:19:04;28.83;;;19.98;;
28625;SDS011;18905;42.668;23.364;2023-08-24T05:21:30;37.92;;;20.77;;
28625;SDS011;18905;42.668;23.364;2023-08-24T05:23:55;31.33;;;20.42;;
28625;SDS011;18905;42.668;23.364;2023-08-24T05:26:20;32.13;;;21.08;;
28625;SDS011;18905;42.668;23.364;2023-08-24T05:28:49;29.75;;;20.42;;
28625;SDS011;18905;42.668;23.364;2023-08-24T05:31:15;34.00;;;20.90;;
28625;SDS011;18905;42.668;23.364;2023-08-24T05:33:41;29.95;;;20.95;;
28625;SDS011;18905;42.668;23.364;2023-08-24T05:36:06;31.40;;;20.65;;
28625;SDS011;18905;42.668;23.364;2023-08-24T05:38:31;37.90;;;21.25;;
28625;SDS011;18905;42.668;23.364;2023-08-24T05:40:57;36.63;;;20.45;;
28625;SDS011;18905;42.668;23.364;2023-08-24T05:43:22;35.25;;;20.75;;
28625;SDS011;18905;42.668;23.364;2023-08-24T05:45:48;34.53;;;20.92;;
28625;SDS011;18905;42.668;23.364;2023-08-24T05:48:14;39.33;;;21.50;;
28625;SDS011;18905;42.668;23.364;2023-08-24T05:50:46;31.20;;;20.77;;
28625;SDS011;18905;42.668;23.364;2023-08-24T05:53:12;33.97;;;21.05;;
28625;SDS011;18905;42.668;23.364;2023-08-24T05:55:38;30.17;;;21.48;;
28625;SDS011;18905;42.668;23.364;2023-08-24T05:58:03;37.00;;;21.35;;
28625;SDS011;18905;42.668;23.364;2023-08-24T06:00:29;40.08;;;21.50;;
28625;SDS011;18905;42.668;23.364;2023-08-24T06:02:55;32.72;;;20.73;;
28625;SDS011;18905;42.668;23.364;2023-08-24T06:05:20;30.38;;;19.27;;
28625;SDS011;18905;42.668;23.364;2023-08-24T06:07:45;36.17;;;20.15;;
28625;SDS011;18905;42.668;23.364;2023-08-24T06:10:11;39.83;;;19.55;;
28625;SDS011;18905;42.668;23.364;2023-08-24T06:12:37;37.33;;;19.55;;
28625;SDS011;18905;42.668;23.364;2023-08-24T06:15:03;28.95;;;18.65;;
28625;SDS011;18905;42.668;23.364;2023-08-24T06:17:29;34.65;;;19.15;;
28625;SDS011;18905;42.668;23.364;2023-08-24T06:19:55;28.50;;;19.75;;
28625;SDS011;18905;42.668;23.364;2023-08-24T06:22:20;32.15;;;19.55;;
28625;SDS011;18905;42.668;23.364;2023-08-24T06:24:46;29.05;;;19.17;;
28625;SDS011;18905;42.668;23.364;2023-08-24T06:27:11;32.17;;;19.98;;
28625;SDS011;18905;42.668;23.364;2023-08-24T06:29:36;30.27;;;19.52;;
28625;SDS011;18905;42.668;23.364;2023-08-24T06:32:02;29.02;;;18.92;;
28625;SDS011;18905;42.668;23.364;2023-08-24T06:34:27;29.40;;;17.77;;
28625;SDS011;18905;42.668;23.364;2023-08-24T06:36:53;30.88;;;18.95;;
28625;SDS011;18905;42.668;23.364;2023-08-24T06:39:19;31.23;;;18.63;;
28625;SDS011;18905;42.668;23.364;2023-08-24T06:41:44;28.30;;;18.55;;
28625;SDS011;18905;42.668;23.364;2023-08-24T06:44:10;26.42;;;17.52;;
28625;SDS011;18905;42.668;23.364;2023-08-24T06:46:35;30.40;;;18.08;;
28625;SDS011;18905;42.668;23.364;2023-08-24T06:49:00;26.75;;;17.48;;
28625;SDS011;18905;42.668;23.364;2023-08-24T06:51:26;25.67;;;17.73;;
28625;SDS011;18905;42.668;23.364;2023-08-24T06:53:52;33.97;;;19.48;;
28625;SDS011;18905;42.668;23.364;2023-08-24T06:56:18;28.30;;;17.83;;
28625;SDS011;18905;42.668;23.364;2023-08-24T06:58:44;25.70;;;17.45;;
28625;SDS011;18905;42.668;23.364;2023-08-24T07:01:10;26.10;;;17.05;;
28625;SDS011;18905;42.668;23.364;2023-08-24T07:03:36;29.90;;;16.90;;
28625;SDS011;18905;42.668;23.364;2023-08-24T07:06:01;28.05;;;16.63;;
28625;SDS011;18905;42.668;23.364;2023-08-24T07:08:27;23.40;;;15.40;;
28625;SDS011;18905;42.668;23.364;2023-08-24T07:10:52;19.23;;;15.00;;
28625;SDS011;18905;42.668;23.364;2023-08-24T07:13:19;23.73;;;14.82;;
28625;SDS011;18905;42.668;23.364;2023-08-24T07:15:44;21.67;;;15.02;;
28625;SDS011;18905;42.668;23.364;2023-08-24T07:18:10;26.30;;;17.00;;
28625;SDS011;18905;42.668;23.364;2023-08-24T07:20:36;22.02;;;15.38;;
28625;SDS011;18905;42.668;23.364;2023-08-24T07:23:02;21.60;;;14.70;;
28625;SDS011;18905;42.668;23.364;2023-08-24T07:25:28;29.67;;;14.10;;
28625;SDS011;18905;42.668;23.364;2023-08-24T07:27:53;20.63;;;14.57;;
28625;SDS011;18905;42.668;23.364;2023-08-24T07:30:26;23.65;;;15.50;;
28625;SDS011;18905;42.668;23.364;2023-08-24T07:32:54;18.60;;;13.93;;
28625;SDS011;18905;42.668;23.364;2023-08-24T07:35:20;22.27;;;15.07;;
28625;SDS011;18905;42.668;23.364;2023-08-24T07:37:49;23.27;;;14.90;;
28625;SDS011;18905;42.668;23.364;2023-08-24T07:40:14;20.77;;;15.50;;
28625;SDS011;18905;42.668;23.364;2023-08-24T07:42:44;28.65;;;15.50;;
28625;SDS011;18905;42.668;23.364;2023-08-24T07:45:13;18.23;;;13.38;;
28625;SDS011;18905;42.668;23.364;2023-08-24T07:47:39;23.60;;;13.27;;
28625;SDS011;18905;42.668;23.364;2023-08-24T07:50:07;17.00;;;13.13;;
28625;SDS011;18905;42.668;23.364;2023-08-24T07:52:33;29.10;;;17.02;;
28625;SDS011;18905;42.668;23.364;2023-08-24T07:54:58;25.77;;;17.48;;
28625;SDS011;18905;42.668;23.364;2023-08-24T07:57:25;27.88;;;17.27;;
28625;SDS011;18905;42.668;23.364;2023-08-24T07:59:53;25.50;;;16.58;;
28625;SDS011;18905;42.668;23.364;2023-08-24T08:02:18;25.23;;;15.57;;
28625;SDS011;18905;42.668;23.364;2023-08-24T08:04:44;29.70;;;16.75;;
28625;SDS011;18905;42.668;23.364;2023-08-24T08:07:10;20.30;;;15.63;;
28625;SDS011;18905;42.668;23.364;2023-08-24T08:09:36;29.25;;;16.60;;
28625;SDS011;18905;42.668;23.364;2023-08-24T08:12:02;24.42;;;15.07;;
28625;SDS011;18905;42.668;23.364;2023-08-24T08:14:28;24.20;;;16.27;;
28625;SDS011;18905;42.668;23.364;2023-08-24T08:16:54;20.60;;;13.20;;
28625;SDS011;18905;42.668;23.364;2023-08-24T08:19:19;17.23;;;11.68;;
28625;SDS011;18905;42.668;23.364;2023-08-24T08:21:46;19.58;;;11.48;;
28625;SDS011;18905;42.668;23.364;2023-08-24T08:24:12;20.92;;;11.00;;
28625;SDS011;18905;42.668;23.364;2023-08-24T08:26:37;19.80;;;11.20;;
28625;SDS011;18905;42.668;23.364;2023-08-24T08:29:03;12.15;;;10.27;;
28625;SDS011;18905;42.668;23.364;2023-08-24T08:31:28;11.82;;;10.27;;
28625;SDS011;18905;42.668;23.364;2023-08-24T08:33:54;12.38;;;9.70;;
28625;SDS011;18905;42.668;23.364;2023-08-24T08:36:19;12.85;;;10.32;;
28625;SDS011;18905;42.668;23.364;2023-08-24T08:38:44;16.10;;;10.45;;
28625;SDS011;18905;42.668;23.364;2023-08-24T08:41:10;13.02;;;10.02;;
28625;SDS011;18905;42.668;23.364;2023-08-24T08:43:37;13.15;;;10.77;;
28625;SDS011;18905;42.668;23.364;2023-08-24T08:46:03;16.30;;;11.68;;
28625;SDS011;18905;42.668;23.364;2023-08-24T08:48:30;18.55;;;10.85;;
28625;SDS011;18905;42.668;23.364;2023-08-24T08:50:57;14.95;;;11.30;;
28625;SDS011;18905;42.668;23.364;2023-08-24T08:53:23;16.38;;;10.52;;
28625;SDS011;18905;42.668;23.364;2023-08-24T08:55:52;19.83;;;12.00;;
28625;SDS011;18905;42.668;23.364;2023-08-24T08:58:19;15.18;;;10.98;;
28625;SDS011;18905;42.668;23.364;2023-08-24T09:00:46;17.85;;;11.68;;
28625;SDS011;18905;42.668;23.364;2023-08-24T09:03:13;17.52;;;11.25;;
28625;SDS011;18905;42.668;23.364;2023-08-24T09:05:42;14.07;;;11.07;;
28625;SDS011;18905;42.668;23.364;2023-08-24T09:08:08;18.38;;;11.23;;
28625;SDS011;18905;42.668;23.364;2023-08-24T09:10:34;15.43;;;11.32;;
28625;SDS011;18905;42.668;23.364;2023-08-24T09:12:59;18.23;;;11.82;;
28625;SDS011;18905;42.668;23.364;2023-08-24T09:15:25;15.75;;;11.05;;
28625;SDS011;18905;42.668;23.364;2023-08-24T09:17:51;17.80;;;11.30;;
28625;SDS011;18905;42.668;23.364;2023-08-24T09:20:18;21.50;;;12.02;;
28625;SDS011;18905;42.668;23.364;2023-08-24T09:22:43;16.13;;;12.02;;
28625;SDS011;18905;42.668;23.364;2023-08-24T09:25:10;15.55;;;11.93;;
28625;SDS011;18905;42.668;23.364;2023-08-24T09:27:35;19.17;;;11.48;;
28625;SDS011;18905;42.668;23.364;2023-08-24T09:30:01;19.42;;;11.70;;
28625;SDS011;18905;42.668;23.364;2023-08-24T09:32:30;16.38;;;11.13;;
28625;SDS011;18905;42.668;23.364;2023-08-24T09:35:17;14.73;;;11.35;;
28625;SDS011;18905;42.668;23.364;2023-08-24T09:37:46;19.35;;;12.13;;
28625;SDS011;18905;42.668;23.364;2023-08-24T09:40:14;18.85;;;12.13;;
28625;SDS011;18905;42.668;23.364;2023-08-24T09:42:41;15.30;;;11.75;;
28625;SDS011;18905;42.668;23.364;2023-08-24T09:45:08;18.40;;;12.00;;
28625;SDS011;18905;42.668;23.364;2023-08-24T09:47:36;16.45;;;12.23;;
28625;SDS011;18905;42.668;23.364;2023-08-24T09:50:02;18.73;;;11.52;;
28625;SDS011;18905;42.668;23.364;2023-08-24T09:52:30;18.83;;;12.27;;
28625;SDS011;18905;42.668;23.364;2023-08-24T09:54:57;13.85;;;11.30;;
28625;SDS011;18905;42.668;23.364;2023-08-24T09:57:33;18.48;;;11.43;;
28625;SDS011;18905;42.668;23.364;2023-08-24T10:00:04;15.40;;;11.88;;
28625;SDS011;18905;42.668;23.364;2023-08-24T10:02:36;21.48;;;12.07;;
28625;SDS011;18905;42.668;23.364;2023-08-24T10:05:02;16.60;;;11.55;;
28625;SDS011;18905;42.668;23.364;2023-08-24T10:07:29;12.88;;;10.30;;
28625;SDS011;18905;42.668;23.364;2023-08-24T10:10:07;11.52;;;10.20;;
28625;SDS011;18905;42.668;23.364;2023-08-24T10:12:36;16.58;;;10.93;;
28625;SDS011;18905;42.668;23.364;2023-08-24T10:15:06;17.42;;;11.25;;
28625;SDS011;18905;42.668;23.364;2023-08-24T10:17:33;11.65;;;10.50;;
28625;SDS011;18905;42.668;23.364;2023-08-24T10:19:59;20.85;;;10.95;;
28625;SDS011;18905;42.668;23.364;2023-08-24T10:22:34;14.83;;;10.17;;
28625;SDS011;18905;42.668;23.364;2023-08-24T10:25:01;12.70;;;10.23;;
28625;SDS011;18905;42.668;23.364;2023-08-24T10:27:28;12.38;;;9.77;;
28625;SDS011;18905;42.668;23.364;2023-08-24T10:29:55;11.90;;;9.85;;
28625;SDS011;18905;42.668;23.364;2023-08-24T10:32:21;15.65;;;10.20;;
28625;SDS011;18905;42.668;23.364;2023-08-24T10:34:49;14.98;;;9.98;;
28625;SDS011;18905;42.668;23.364;2023-08-24T10:37:14;18.55;;;9.95;;
28625;SDS011;18905;42.668;23.364;2023-08-24T10:39:44;15.00;;;9.88;;
28625;SDS011;18905;42.668;23.364;2023-08-24T10:42:11;13.05;;;10.68;;
28625;SDS011;18905;42.668;23.364;2023-08-24T10:44:37;20.10;;;9.98;;
28625;SDS011;18905;42.668;23.364;2023-08-24T10:47:08;12.43;;;9.52;;
28625;SDS011;18905;42.668;23.364;2023-08-24T10:49:43;11.98;;;9.43;;
28625;SDS011;18905;42.668;23.364;2023-08-24T10:54:49;16.80;;;9.95;;
28625;SDS011;18905;42.668;23.364;2023-08-24T10:59:58;18.33;;;11.35;;
28625;SDS011;18905;42.668;23.364;2023-08-24T11:02:40;22.90;;;11.10;;
28625;SDS011;18905;42.668;23.364;2023-08-24T11:07:32;23.58;;;11.98;;
28625;SDS011;18905;42.668;23.364;2023-08-24T11:09:57;20.02;;;10.48;;
28625;SDS011;18905;42.668;23.364;2023-08-24T11:12:23;20.17;;;12.13;;
28625;SDS011;18905;42.668;23.364;2023-08-24T11:14:49;15.43;;;10.90;;
28625;SDS011;18905;42.668;23.364;2023-08-24T11:19:49;17.23;;;12.23;;
28625;SDS011;18905;42.668;23.364;2023-08-24T11:22:19;13.82;;;10.88;;
28625;SDS011;18905;42.668;23.364;2023-08-24T11:24:45;15.05;;;11.82;;
28625;SDS011;18905;42.668;23.364;2023-08-24T11:27:10;16.50;;;11.40;;
28625;SDS011;18905;42.668;23.364;2023-08-24T11:29:36;17.40;;;11.32;;
28625;SDS011;18905;42.668;23.364;2023-08-24T11:32:01;17.40;;;12.95;;
28625;SDS011;18905;42.668;23.364;2023-08-24T11:34:27;19.13;;;11.73;;
28625;SDS011;18905;42.668;23.364;2023-08-24T11:36:53;15.25;;;12.35;;
28625;SDS011;18905;42.668;23.364;2023-08-24T11:39:19;18.17;;;12.45;;
28625;SDS011;18905;42.668;23.364;2023-08-24T11:41:57;23.50;;;12.93;;
28625;SDS011;18905;42.668;23.364;2023-08-24T11:44:24;22.10;;;12.43;;
28625;SDS011;18905;42.668;23.364;2023-08-24T11:46:49;21.17;;;12.48;;
28625;SDS011;18905;42.668;23.364;2023-08-24T11:49:15;18.52;;;12.38;;
28625;SDS011;18905;42.668;23.364;2023-08-24T11:51:41;21.20;;;12.88;;
28625;SDS011;18905;42.668;23.364;2023-08-24T11:54:06;17.65;;;11.95;;
28625;SDS011;18905;42.668;23.364;2023-08-24T11:56:33;17.10;;;11.57;;
28625;SDS011;18905;42.668;23.364;2023-08-24T11:59:05;15.15;;;10.63;;
28625;SDS011;18905;42.668;23.364;2023-08-24T12:01:30;22.58;;;11.68;;
28625;SDS011;18905;42.668;23.364;2023-08-24T12:03:57;19.73;;;11.93;;
28625;SDS011;18905;42.668;23.364;2023-08-24T12:06:26;18.40;;;12.63;;
28625;SDS011;18905;42.668;23.364;2023-08-24T12:08:52;21.10;;;12.00;;
28625;SDS011;18905;42.668;23.364;2023-08-24T12:11:19;17.17;;;11.73;;
28625;SDS011;18905;42.668;23.364;2023-08-24T12:13:49;18.42;;;12.50;;
28625;SDS011;18905;42.668;23.364;2023-08-24T12:16:16;16.77;;;11.85;;
28625;SDS011;18905;42.668;23.364;2023-08-24T12:18:52;19.50;;;12.05;;
28625;SDS011;18905;42.668;23.364;2023-08-24T12:21:19;18.25;;;12.20;;
28625;SDS011;18905;42.668;23.364;2023-08-24T12:26:31;17.27;;;11.48;;
28625;SDS011;18905;42.668;23.364;2023-08-24T12:31:28;15.45;;;10.77;;
28625;SDS011;18905;42.668;23.364;2023-08-24T12:36:30;14.02;;;11.15;;
28625;SDS011;18905;42.668;23.364;2023-08-24T12:38:57;18.77;;;11.07;;
28625;SDS011;18905;42.668;23.364;2023-08-24T12:41:23;22.55;;;11.25;;
28625;SDS011;18905;42.668;23.364;2023-08-24T12:43:49;15.27;;;11.38;;
28625;SDS011;18905;42.668;23.364;2023-08-24T12:46:15;17.65;;;11.82;;
28625;SDS011;18905;42.668;23.364;2023-08-24T12:48:41;19.77;;;10.90;;
28625;SDS011;18905;42.668;23.364;2023-08-24T12:51:06;14.02;;;11.20;;
28625;SDS011;18905;42.668;23.364;2023-08-24T12:53:31;18.27;;;11.18;;
28625;SDS011;18905;42.668;23.364;2023-08-24T12:55:57;15.60;;;10.60;;
28625;SDS011;18905;42.668;23.364;2023-08-24T12:58:22;17.27;;;11.10;;
28625;SDS011;18905;42.668;23.364;2023-08-24T13:00:47;13.52;;;10.43;;
28625;SDS011;18905;42.668;23.364;2023-08-24T13:03:13;18.00;;;10.27;;
28625;SDS011;18905;42.668;23.364;2023-08-24T13:05:39;17.15;;;10.55;;
28625;SDS011;18905;42.668;23.364;2023-08-24T13:08:04;19.02;;;10.40;;
28625;SDS011;18905;42.668;23.364;2023-08-24T13:10:30;14.07;;;10.38;;
28625;SDS011;18905;42.668;23.364;2023-08-24T13:12:55;17.98;;;10.35;;
28625;SDS011;18905;42.668;23.364;2023-08-24T13:15:22;21.75;;;9.35;;
28625;SDS011;18905;42.668;23.364;2023-08-24T13:17:47;14.18;;;8.95;;
28625;SDS011;18905;42.668;23.364;2023-08-24T13:20:12;21.23;;;8.82;;
28625;SDS011;18905;42.668;23.364;2023-08-24T13:22:38;13.45;;;9.35;;
28625;SDS011;18905;42.668;23.364;2023-08-24T13:25:03;23.60;;;10.50;;
28625;SDS011;18905;42.668;23.364;2023-08-24T13:27:29;18.55;;;9.73;;
28625;SDS011;18905;42.668;23.364;2023-08-24T13:29:56;17.90;;;10.05;;
28625;SDS011;18905;42.668;23.364;2023-08-24T13:32:24;17.33;;;9.65;;
28625;SDS011;18905;42.668;23.364;2023-08-24T13:34:50;19.58;;;9.80;;
28625;SDS011;18905;42.668;23.364;2023-08-24T13:37:15;13.65;;;9.35;;
28625;SDS011;18905;42.668;23.364;2023-08-24T13:39:41;16.25;;;9.93;;
28625;SDS011;18905;42.668;23.364;2023-08-24T13:42:07;15.43;;;10.50;;
28625;SDS011;18905;42.668;23.364;2023-08-24T13:44:32;17.13;;;9.30;;
28625;SDS011;18905;42.668;23.364;2023-08-24T13:46:57;21.63;;;11.82;;
28625;SDS011;18905;42.668;23.364;2023-08-24T13:49:23;21.38;;;10.57;;
28625;SDS011;18905;42.668;23.364;2023-08-24T13:51:48;15.63;;;10.32;;
28625;SDS011;18905;42.668;23.364;2023-08-24T13:54:14;20.05;;;11.00;;
28625;SDS011;18905;42.668;23.364;2023-08-24T13:56:44;17.17;;;11.25;;
28625;SDS011;18905;42.668;23.364;2023-08-24T13:59:10;23.42;;;10.73;;
28625;SDS011;18905;42.668;23.364;2023-08-24T14:01:36;15.00;;;10.52;;
28625;SDS011;18905;42.668;23.364;2023-08-24T14:04:02;20.02;;;11.45;;
28625;SDS011;18905;42.668;23.364;2023-08-24T14:06:31;15.00;;;11.32;;
28625;SDS011;18905;42.668;23.364;2023-08-24T14:09:02;14.55;;;11.40;;
28625;SDS011;18905;42.668;23.364;2023-08-24T14:11:29;17.13;;;11.05;;
28625;SDS011;18905;42.668;23.364;2023-08-24T14:13:54;16.98;;;11.20;;
28625;SDS011;18905;42.668;23.364;2023-08-24T14:16:20;18.98;;;11.52;;
28625;SDS011;18905;42.668;23.364;2023-08-24T14:18:46;13.70;;;11.77;;
28625;SDS011;18905;42.668;23.364;2023-08-24T14:21:12;16.50;;;12.00;;
28625;SDS011;18905;42.668;23.364;2023-08-24T14:23:37;15.02;;;12.00;;
28625;SDS011;18905;42.668;23.364;2023-08-24T14:26:03;25.08;;;12.05;;
28625;SDS011;18905;42.668;23.364;2023-08-24T14:28:46;20.40;;;11.98;;
28625;SDS011;18905;42.668;23.364;2023-08-24T14:31:19;18.92;;;11.75;;
28625;SDS011;18905;42.668;23.364;2023-08-24T14:33:48;14.45;;;11.30;;